createdAt,value
2022-07-28T00:00:00.587Z,60.69
2022-07-28T00:01:00.264Z,60.69
2022-07-28T00:02:01.151Z,60.69
2022-07-28T00:03:00.860Z,60.85
2022-07-28T00:04:00.328Z,60.85
2022-07-28T00:05:00.333Z,60.85
2022-07-28T00:06:00.262Z,60.85
2022-07-28T00:07:00.557Z,60.85
2022-07-28T00:08:00.598Z,60.89
2022-07-28T00:09:00.273Z,60.89
2022-07-28T00:10:00.993Z,60.89
2022-07-28T00:11:00.262Z,60.89
2022-07-28T00:12:00.258Z,60.89
2022-07-28T00:13:00.267Z,60.91
2022-07-28T00:14:00.264Z,60.91
2022-07-28T00:15:00.508Z,60.91
2022-07-28T00:16:00.364Z,60.91
2022-07-28T00:17:00.264Z,60.91
2022-07-28T00:18:00.275Z,60.85
2022-07-28T00:19:00.317Z,60.85
2022-07-28T00:20:02.855Z,60.85
2022-07-28T00:21:00.390Z,60.85
2022-07-28T00:22:00.356Z,60.85
2022-07-28T00:23:00.355Z,60.96
2022-07-28T00:24:00.269Z,60.96
2022-07-28T00:25:00.298Z,60.96
2022-07-28T00:26:01.249Z,60.96
2022-07-28T00:27:00.266Z,60.96
2022-07-28T00:28:00.274Z,60.95
2022-07-28T00:29:00.318Z,60.95
2022-07-28T00:30:00.269Z,60.95
2022-07-28T00:31:05.522Z,60.95
2022-07-28T00:32:00.373Z,60.95
2022-07-28T00:33:00.256Z,61.02
2022-07-28T00:34:00.334Z,61.02
2022-07-28T00:35:00.351Z,61.02
2022-07-28T00:36:00.294Z,61.02
2022-07-28T00:37:00.407Z,61.02
2022-07-28T00:38:00.386Z,60.99
2022-07-28T00:39:00.282Z,60.99
2022-07-28T00:40:00.373Z,60.99
2022-07-28T00:41:00.537Z,60.99
2022-07-28T00:42:00.269Z,60.99
2022-07-28T00:43:00.266Z,61.11
2022-07-28T00:44:00.283Z,61.11
2022-07-28T00:45:00.486Z,61.11
2022-07-28T00:46:00.351Z,61.11
2022-07-28T00:47:00.334Z,61.11
2022-07-28T00:48:00.292Z,61.24
2022-07-28T00:49:00.497Z,61.24
2022-07-28T00:50:01.066Z,61.24
2022-07-28T00:51:00.322Z,61.24
2022-07-28T00:52:00.710Z,61.24
2022-07-28T00:53:01.181Z,61.21
2022-07-28T00:54:00.282Z,61.21
2022-07-28T00:55:01.960Z,61.21
2022-07-28T00:56:05.537Z,61.21
2022-07-28T00:57:00.583Z,61.21
2022-07-28T00:58:00.312Z,61.30
2022-07-28T00:59:00.958Z,61.30
2022-07-28T01:00:00.400Z,61.30
2022-07-28T01:01:00.288Z,61.30
2022-07-28T01:02:01.080Z,61.30
2022-07-28T01:03:01.081Z,61.52
2022-07-28T01:04:00.965Z,61.52
2022-07-28T01:05:00.430Z,61.52
2022-07-28T01:06:10.170Z,61.52
2022-07-28T01:07:07.717Z,61.52
2022-07-28T01:08:02.980Z,61.55
2022-07-28T01:09:07.739Z,61.55
2022-07-28T01:10:10.180Z,61.55
2022-07-28T01:11:05.842Z,61.55
2022-07-28T01:12:10.164Z,61.55
2022-07-28T01:13:09.308Z,61.55
2022-07-28T01:14:00.260Z,61.55
2022-07-28T01:15:10.184Z,61.55
2022-07-28T01:16:02.302Z,61.55
2022-07-28T01:17:04.829Z,61.55
2022-07-28T01:18:10.183Z,61.49
2022-07-28T01:19:03.484Z,61.49
2022-07-28T01:20:03.655Z,61.49
2022-07-28T01:21:03.231Z,61.49
2022-07-28T01:22:01.574Z,61.49
2022-07-28T01:23:10.196Z,61.66
2022-07-28T01:24:00.259Z,61.66
2022-07-28T01:25:07.863Z,61.66
2022-07-28T01:26:07.717Z,61.66
2022-07-28T01:27:04.773Z,61.66
2022-07-28T01:28:00.277Z,61.74
2022-07-28T01:29:02.566Z,61.74
2022-07-28T01:30:03.174Z,61.74
2022-07-28T01:31:03.375Z,61.74
2022-07-28T01:32:10.194Z,61.74
2022-07-28T01:33:03.103Z,62.10
2022-07-28T01:34:04.728Z,62.10
2022-07-28T01:35:00.282Z,62.10
2022-07-28T01:36:07.702Z,62.10
2022-07-28T01:37:05.671Z,62.10
2022-07-28T01:38:02.605Z,62.14
2022-07-28T01:39:01.208Z,62.14
2022-07-28T01:40:02.373Z,62.14
2022-07-28T01:41:01.603Z,62.14
2022-07-28T01:42:01.902Z,62.14
2022-07-28T01:43:01.719Z,62.26
2022-07-28T01:44:02.090Z,62.26
2022-07-28T01:45:01.077Z,62.26
2022-07-28T01:46:01.617Z,62.26
2022-07-28T01:47:01.493Z,62.26
2022-07-28T01:48:01.818Z,62.41
2022-07-28T01:49:00.970Z,62.41
2022-07-28T01:50:03.816Z,62.41
2022-07-28T01:51:00.835Z,62.41
2022-07-28T01:52:01.777Z,62.41
2022-07-28T01:53:00.698Z,62.46
2022-07-28T01:54:00.820Z,62.46
2022-07-28T01:55:01.465Z,62.46
2022-07-28T01:56:00.670Z,62.46
2022-07-28T01:57:01.515Z,62.46
2022-07-28T01:58:00.735Z,62.71
2022-07-28T01:59:02.843Z,62.71
2022-07-28T02:00:00.890Z,62.71
2022-07-28T02:01:01.423Z,62.71
2022-07-28T02:02:01.585Z,62.71
2022-07-28T02:03:01.308Z,62.91
2022-07-28T02:04:02.273Z,62.91
2022-07-28T02:05:01.454Z,62.91
2022-07-28T02:06:01.725Z,62.91
2022-07-28T02:07:01.501Z,62.91
2022-07-28T02:08:01.747Z,62.91
2022-07-28T02:09:02.570Z,62.91
2022-07-28T02:10:01.481Z,62.91
2022-07-28T02:11:00.734Z,62.91
2022-07-28T02:12:01.792Z,62.91
2022-07-28T02:13:00.853Z,62.99
2022-07-28T02:14:00.544Z,62.99
2022-07-28T02:15:01.467Z,62.99
2022-07-28T02:16:03.267Z,62.99
2022-07-28T02:17:02.176Z,62.99
2022-07-28T02:18:01.395Z,63.21
2022-07-28T02:19:01.407Z,63.21
2022-07-28T02:20:01.054Z,63.21
2022-07-28T02:21:01.506Z,63.21
2022-07-28T02:22:02.102Z,63.21
2022-07-28T02:23:00.447Z,63.50
2022-07-28T02:24:00.299Z,63.50
2022-07-28T02:25:00.348Z,63.50
2022-07-28T02:26:02.097Z,63.50
2022-07-28T02:27:04.965Z,63.50
2022-07-28T02:28:02.662Z,63.62
2022-07-28T02:29:00.809Z,63.62
2022-07-28T02:30:04.439Z,63.62
2022-07-28T02:31:04.245Z,63.62
2022-07-28T02:32:03.269Z,63.62
2022-07-28T02:33:02.659Z,63.73
2022-07-28T02:34:02.481Z,63.73
2022-07-28T02:35:06.932Z,63.73
2022-07-28T02:36:03.874Z,63.73
2022-07-28T02:37:01.141Z,63.73
2022-07-28T02:38:01.331Z,63.84
2022-07-28T02:39:04.258Z,63.84
2022-07-28T02:40:01.416Z,63.84
2022-07-28T02:41:02.786Z,63.84
2022-07-28T02:42:04.041Z,63.84
2022-07-28T02:43:00.729Z,63.84
2022-07-28T02:44:02.528Z,63.84
2022-07-28T02:45:01.979Z,63.84
2022-07-28T02:46:03.689Z,63.84
2022-07-28T02:47:00.779Z,63.84
2022-07-28T02:48:01.870Z,63.94
2022-07-28T02:49:03.810Z,63.94
2022-07-28T02:50:01.151Z,63.94
2022-07-28T02:51:00.985Z,63.94
2022-07-28T02:52:01.052Z,63.94
2022-07-28T02:53:01.889Z,64.02
2022-07-28T02:54:00.771Z,64.02
2022-07-28T02:55:01.495Z,64.02
2022-07-28T02:56:01.191Z,64.02
2022-07-28T02:57:01.195Z,64.02
2022-07-28T02:58:01.004Z,64.00
2022-07-28T02:59:01.443Z,64.00
2022-07-28T03:00:00.835Z,64.00
2022-07-28T03:01:00.571Z,64.00
2022-07-28T03:02:00.603Z,64.00
2022-07-28T03:03:00.999Z,64.22
2022-07-28T03:04:00.308Z,64.22
2022-07-28T03:05:00.392Z,64.22
2022-07-28T03:06:00.688Z,64.22
2022-07-28T03:07:00.312Z,64.22
2022-07-28T03:08:00.335Z,64.30
2022-07-28T03:09:00.388Z,64.30
2022-07-28T03:10:00.685Z,64.30
2022-07-28T03:11:10.188Z,64.30
2022-07-28T03:12:00.305Z,64.30
2022-07-28T03:13:01.168Z,64.31
2022-07-28T03:14:00.291Z,64.31
2022-07-28T03:15:00.269Z,64.31
2022-07-28T03:16:00.579Z,64.31
2022-07-28T03:17:00.390Z,64.31
2022-07-28T03:18:01.103Z,64.41
2022-07-28T03:19:00.256Z,64.41
2022-07-28T03:20:00.355Z,64.41
2022-07-28T03:21:00.305Z,64.41
2022-07-28T03:22:00.622Z,64.41
2022-07-28T03:23:00.303Z,64.51
2022-07-28T03:24:00.502Z,64.51
2022-07-28T03:25:01.425Z,64.51
2022-07-28T03:26:04.145Z,64.51
2022-07-28T03:27:07.851Z,64.51
2022-07-28T03:28:02.147Z,64.76
2022-07-28T03:29:01.062Z,64.76
2022-07-28T03:30:05.244Z,64.76
2022-07-28T03:31:02.922Z,64.76
2022-07-28T03:32:00.376Z,64.76
2022-07-28T03:33:01.689Z,65.07
2022-07-28T03:34:00.365Z,65.07
2022-07-28T03:35:00.661Z,65.07
2022-07-28T03:36:03.112Z,65.07
2022-07-28T03:37:04.127Z,65.07
2022-07-28T03:38:05.672Z,65.16
2022-07-28T03:39:01.918Z,65.16
2022-07-28T03:40:01.795Z,65.16
2022-07-28T03:41:01.208Z,65.16
2022-07-28T03:42:02.345Z,65.16
2022-07-28T03:43:01.912Z,65.43
2022-07-28T03:44:00.269Z,65.43
2022-07-28T03:45:01.040Z,65.43
2022-07-28T03:46:00.418Z,65.43
2022-07-28T03:47:00.259Z,65.43
2022-07-28T03:48:00.401Z,65.54
2022-07-28T03:49:00.374Z,65.54
2022-07-28T03:50:00.329Z,65.54
2022-07-28T03:51:00.269Z,65.54
2022-07-28T03:52:00.285Z,65.54
2022-07-28T03:53:00.638Z,65.66
2022-07-28T03:54:00.296Z,65.66
2022-07-28T03:55:00.292Z,65.66
2022-07-28T03:56:00.299Z,65.66
2022-07-28T03:57:00.343Z,65.66
2022-07-28T03:58:00.296Z,65.80
2022-07-28T03:59:00.264Z,65.80
2022-07-28T04:00:00.333Z,65.80
2022-07-28T04:01:00.568Z,65.80
2022-07-28T04:02:00.386Z,65.80
2022-07-28T04:03:00.297Z,66.33
2022-07-28T04:04:00.300Z,66.33
2022-07-28T04:05:00.323Z,66.33
2022-07-28T04:06:00.259Z,66.33
2022-07-28T04:07:00.279Z,66.33
2022-07-28T04:08:00.335Z,66.33
2022-07-28T04:09:00.269Z,66.33
2022-07-28T04:10:00.270Z,66.33
2022-07-28T04:11:00.305Z,66.33
2022-07-28T04:12:00.313Z,66.33
2022-07-28T04:13:00.582Z,66.39
2022-07-28T04:14:00.289Z,66.39
2022-07-28T04:15:00.274Z,66.39
2022-07-28T04:16:00.291Z,66.39
2022-07-28T04:17:00.365Z,66.39
2022-07-28T04:18:00.272Z,66.55
2022-07-28T04:19:00.334Z,66.55
2022-07-28T04:20:00.257Z,66.55
2022-07-28T04:21:00.301Z,66.55
2022-07-28T04:22:00.290Z,66.55
2022-07-28T04:23:00.307Z,66.63
2022-07-28T04:24:12.726Z,66.63
2022-07-28T04:25:00.715Z,66.63
2022-07-28T04:26:00.304Z,66.63
2022-07-28T04:27:00.285Z,66.63
2022-07-28T04:28:00.280Z,66.66
2022-07-28T04:29:03.358Z,66.66
2022-07-28T04:30:00.329Z,66.66
2022-07-28T04:31:00.347Z,66.66
2022-07-28T04:32:00.299Z,66.66
2022-07-28T04:33:00.265Z,66.98
2022-07-28T04:34:00.308Z,66.98
2022-07-28T04:35:00.381Z,66.98
2022-07-28T04:36:00.423Z,66.98
2022-07-28T04:37:00.285Z,66.98
2022-07-28T04:38:00.385Z,67.15
2022-07-28T04:39:00.303Z,67.15
2022-07-28T04:40:00.530Z,67.15
2022-07-28T04:41:00.322Z,67.15
2022-07-28T04:42:00.800Z,67.15
2022-07-28T04:43:00.327Z,67.19
2022-07-28T04:44:00.279Z,67.19
2022-07-28T04:45:00.470Z,67.19
2022-07-28T04:46:00.373Z,67.19
2022-07-28T04:47:00.295Z,67.19
2022-07-28T04:48:00.305Z,67.30
2022-07-28T04:49:00.380Z,67.30
2022-07-28T04:50:00.752Z,67.30
2022-07-28T04:51:00.312Z,67.30
2022-07-28T04:52:00.316Z,67.30
2022-07-28T04:53:00.294Z,67.36
2022-07-28T04:54:00.332Z,67.36
2022-07-28T04:55:00.304Z,67.36
2022-07-28T04:56:00.273Z,67.36
2022-07-28T04:57:00.626Z,67.36
2022-07-28T04:58:00.267Z,67.50
2022-07-28T04:59:00.342Z,67.50
2022-07-28T05:00:00.649Z,67.50
2022-07-28T05:01:00.472Z,67.50
2022-07-28T05:02:00.924Z,67.50
2022-07-28T05:03:00.274Z,67.86
2022-07-28T05:04:00.288Z,67.86
2022-07-28T05:05:00.401Z,67.86
2022-07-28T05:06:00.274Z,67.86
2022-07-28T05:07:00.320Z,67.86
2022-07-28T05:08:00.387Z,68.05
2022-07-28T05:09:00.314Z,68.05
2022-07-28T05:10:00.286Z,68.05
2022-07-28T05:11:00.269Z,68.05
2022-07-28T05:12:00.265Z,68.05
2022-07-28T05:13:03.638Z,68.21
2022-07-28T05:14:00.400Z,68.21
2022-07-28T05:15:00.303Z,68.21
2022-07-28T05:16:00.775Z,68.21
2022-07-28T05:17:00.443Z,68.21
2022-07-28T05:18:00.293Z,68.49
2022-07-28T05:19:00.332Z,68.49
2022-07-28T05:20:00.304Z,68.49
2022-07-28T05:21:00.276Z,68.49
2022-07-28T05:22:00.305Z,68.49
2022-07-28T05:23:00.289Z,68.92
2022-07-28T05:24:00.267Z,68.92
2022-07-28T05:25:00.262Z,68.92
2022-07-28T05:26:00.276Z,68.92
2022-07-28T05:27:00.268Z,68.92
2022-07-28T05:28:00.282Z,69.11
2022-07-28T05:29:00.409Z,69.11
2022-07-28T05:30:00.317Z,69.11
2022-07-28T05:31:00.309Z,69.11
2022-07-28T05:32:02.090Z,69.11
2022-07-28T05:33:00.262Z,69.67
2022-07-28T05:34:00.303Z,69.67
2022-07-28T05:35:00.416Z,69.67
2022-07-28T05:36:00.368Z,69.67
2022-07-28T05:37:01.036Z,69.67
2022-07-28T05:38:00.280Z,69.79
2022-07-28T05:39:00.477Z,69.79
2022-07-28T05:40:01.076Z,69.79
2022-07-28T05:41:00.281Z,69.79
2022-07-28T05:42:00.278Z,69.79
2022-07-28T05:43:00.261Z,69.77
2022-07-28T05:44:00.278Z,69.77
2022-07-28T05:45:01.256Z,69.77
2022-07-28T05:46:00.408Z,69.77
2022-07-28T05:47:00.281Z,69.77
2022-07-28T05:48:00.315Z,69.89
2022-07-28T05:49:00.326Z,69.89
2022-07-28T05:50:00.516Z,69.89
2022-07-28T05:51:00.291Z,69.89
2022-07-28T05:52:00.269Z,69.89
2022-07-28T05:53:00.274Z,69.95
2022-07-28T05:54:00.350Z,69.95
2022-07-28T05:55:00.308Z,69.95
2022-07-28T05:56:01.750Z,69.95
2022-07-28T05:57:00.272Z,69.95
2022-07-28T05:58:00.314Z,70.00
2022-07-28T05:59:00.293Z,70.00
2022-07-28T06:00:00.463Z,70.00
2022-07-28T06:01:01.345Z,70.00
2022-07-28T06:02:00.323Z,70.00
2022-07-28T06:03:00.663Z,70.26
2022-07-28T06:04:26.414Z,70.26
2022-07-28T06:05:00.385Z,70.26
2022-07-28T06:06:15.239Z,70.26
2022-07-28T06:07:00.278Z,70.26
2022-07-28T06:08:00.318Z,70.15
2022-07-28T06:09:00.277Z,70.15
2022-07-28T06:10:00.282Z,70.15
2022-07-28T06:11:00.279Z,70.15
2022-07-28T06:12:00.268Z,70.15
2022-07-28T06:13:00.263Z,70.08
2022-07-28T06:14:00.366Z,70.08
2022-07-28T06:15:00.293Z,70.08
2022-07-28T06:16:00.338Z,70.08
2022-07-28T06:17:00.339Z,70.08
2022-07-28T06:18:00.280Z,70.22
2022-07-28T06:19:00.284Z,70.22
2022-07-28T06:20:00.288Z,70.22
2022-07-28T06:21:00.411Z,70.22
2022-07-28T06:22:00.412Z,70.22
2022-07-28T06:23:00.337Z,70.13
2022-07-28T06:24:00.280Z,70.13
2022-07-28T06:25:00.316Z,70.13
2022-07-28T06:26:00.362Z,70.13
2022-07-28T06:27:00.331Z,70.13
2022-07-28T06:28:00.601Z,69.88
2022-07-28T06:29:00.302Z,69.88
2022-07-28T06:30:00.309Z,69.88
2022-07-28T06:31:00.284Z,69.88
2022-07-28T06:32:00.389Z,69.88
2022-07-28T06:33:00.340Z,69.60
2022-07-28T06:34:00.419Z,69.60
2022-07-28T06:35:00.324Z,69.60
2022-07-28T06:36:00.292Z,69.60
2022-07-28T06:37:00.305Z,69.60
2022-07-28T06:38:00.306Z,68.80
2022-07-28T06:39:00.419Z,68.80
2022-07-28T06:40:00.362Z,68.80
2022-07-28T06:41:00.290Z,68.80
2022-07-28T06:42:00.331Z,68.80
2022-07-28T06:43:00.347Z,68.70
2022-07-28T06:44:00.357Z,68.70
2022-07-28T06:45:00.478Z,68.70
2022-07-28T06:46:00.303Z,68.70
2022-07-28T06:47:00.385Z,68.70
2022-07-28T06:48:00.362Z,68.41
2022-07-28T06:49:00.749Z,68.41
2022-07-28T06:50:00.467Z,68.41
2022-07-28T06:51:00.380Z,68.41
2022-07-28T06:52:00.398Z,68.41
2022-07-28T06:53:00.626Z,68.25
2022-07-28T06:54:00.303Z,68.25
2022-07-28T06:55:00.323Z,68.25
2022-07-28T06:56:01.047Z,68.25
2022-07-28T06:57:00.282Z,68.25
2022-07-28T06:58:00.358Z,67.86
2022-07-28T06:59:00.314Z,67.86
2022-07-28T07:00:04.411Z,67.86
2022-07-28T07:01:00.423Z,67.86
2022-07-28T07:02:00.357Z,67.86
2022-07-28T07:03:01.065Z,67.54
2022-07-28T07:04:00.332Z,67.54
2022-07-28T07:05:00.289Z,67.54
2022-07-28T07:06:00.315Z,67.54
2022-07-28T07:07:00.281Z,67.54
2022-07-28T07:08:00.301Z,66.62
2022-07-28T07:09:00.297Z,66.62
2022-07-28T07:10:00.430Z,66.62
2022-07-28T07:11:00.354Z,66.62
2022-07-28T07:12:00.528Z,66.62
2022-07-28T07:13:00.359Z,65.91
2022-07-28T07:14:02.629Z,65.91
2022-07-28T07:15:00.873Z,65.91
2022-07-28T07:16:00.473Z,65.91
2022-07-28T07:17:00.357Z,65.91
2022-07-28T07:18:00.331Z,65.48
2022-07-28T07:19:00.287Z,65.48
2022-07-28T07:20:00.283Z,65.48
2022-07-28T07:21:00.371Z,65.48
2022-07-28T07:22:00.359Z,65.48
2022-07-28T07:23:00.287Z,65.09
2022-07-28T07:24:00.753Z,65.09
2022-07-28T07:25:08.185Z,65.09
2022-07-28T07:26:01.309Z,65.09
2022-07-28T07:27:00.288Z,65.09
2022-07-28T07:28:00.305Z,64.73
2022-07-28T07:29:00.290Z,64.73
2022-07-28T07:30:00.351Z,64.73
2022-07-28T07:31:00.329Z,64.73
2022-07-28T07:32:00.457Z,64.73
2022-07-28T07:33:00.297Z,64.30
2022-07-28T07:34:00.456Z,64.30
2022-07-28T07:35:00.387Z,64.30
2022-07-28T07:36:00.306Z,64.30
2022-07-28T07:37:00.341Z,64.30
2022-07-28T07:38:00.304Z,63.56
2022-07-28T07:39:00.284Z,63.56
2022-07-28T07:40:01.040Z,63.56
2022-07-28T07:41:00.303Z,63.56
2022-07-28T07:42:00.342Z,63.56
2022-07-28T07:43:00.327Z,63.07
2022-07-28T07:44:00.278Z,63.07
2022-07-28T07:45:00.317Z,63.07
2022-07-28T07:46:00.335Z,63.07
2022-07-28T07:47:00.469Z,63.07
2022-07-28T07:48:00.976Z,62.37
2022-07-28T07:49:00.361Z,62.37
2022-07-28T07:50:03.855Z,62.37
2022-07-28T07:51:00.305Z,62.37
2022-07-28T07:52:00.319Z,62.37
2022-07-28T07:53:00.412Z,62.02
2022-07-28T07:54:00.361Z,62.02
2022-07-28T07:55:00.293Z,62.02
2022-07-28T07:56:00.601Z,62.02
2022-07-28T07:57:00.477Z,62.02
2022-07-28T07:58:00.391Z,61.45
2022-07-28T07:59:00.329Z,61.45
2022-07-28T08:00:00.386Z,61.45
2022-07-28T08:01:00.289Z,61.45
2022-07-28T08:02:00.711Z,61.45
2022-07-28T08:03:00.322Z,61.09
2022-07-28T08:04:00.349Z,61.09
2022-07-28T08:05:00.462Z,61.09
2022-07-28T08:06:01.442Z,61.09
2022-07-28T08:07:00.261Z,61.09
2022-07-28T08:08:00.696Z,60.48
2022-07-28T08:09:00.291Z,60.48
2022-07-28T08:10:00.637Z,60.48
2022-07-28T08:11:00.354Z,60.48
2022-07-28T08:12:00.429Z,60.48
2022-07-28T08:13:00.447Z,59.94
2022-07-28T08:14:00.306Z,59.94
2022-07-28T08:15:00.313Z,59.94
2022-07-28T08:16:00.330Z,59.94
2022-07-28T08:17:00.287Z,59.94
2022-07-28T08:18:00.749Z,59.86
2022-07-28T08:19:00.342Z,59.86
2022-07-28T08:20:00.396Z,59.86
2022-07-28T08:21:00.335Z,59.86
2022-07-28T08:22:00.632Z,59.86
2022-07-28T08:23:00.288Z,59.42
2022-07-28T08:24:00.292Z,59.42
2022-07-28T08:25:01.872Z,59.42
2022-07-28T08:26:00.295Z,59.42
2022-07-28T08:27:01.113Z,59.42
2022-07-28T08:28:00.277Z,58.97
2022-07-28T08:29:00.295Z,58.97
2022-07-28T08:30:00.264Z,58.97
2022-07-28T08:31:00.353Z,58.97
2022-07-28T08:32:00.344Z,58.97
2022-07-28T08:33:00.276Z,59.09
2022-07-28T08:34:00.272Z,59.09
2022-07-28T08:35:30.440Z,59.09
2022-07-28T08:36:00.259Z,59.09
2022-07-28T08:37:01.375Z,59.09
2022-07-28T08:38:00.628Z,58.82
2022-07-28T08:39:00.269Z,58.82
2022-07-28T08:40:00.327Z,58.82
2022-07-28T08:41:02.444Z,58.82
2022-07-28T08:42:06.301Z,58.82
2022-07-28T08:43:02.728Z,58.46
2022-07-28T08:44:01.240Z,58.46
2022-07-28T08:45:10.170Z,58.46
2022-07-28T08:46:00.963Z,58.46
2022-07-28T08:47:00.508Z,58.46
2022-07-28T08:48:08.856Z,57.91
2022-07-28T08:49:01.622Z,57.91
2022-07-28T08:50:00.877Z,57.91
2022-07-28T08:51:01.639Z,57.91
2022-07-28T08:52:00.355Z,57.91
2022-07-28T08:53:00.551Z,56.09
2022-07-28T08:54:01.441Z,56.09
2022-07-28T08:55:01.414Z,56.09
2022-07-28T08:56:02.337Z,56.09
2022-07-28T08:57:00.458Z,56.09
2022-07-28T08:58:00.908Z,56.31
2022-07-28T08:59:01.628Z,56.31
2022-07-28T09:00:00.383Z,56.31
2022-07-28T09:01:00.831Z,56.31
2022-07-28T09:02:00.329Z,56.31
2022-07-28T09:03:00.885Z,55.56
2022-07-28T09:04:00.912Z,55.56
2022-07-28T09:05:01.056Z,55.56
2022-07-28T09:06:00.792Z,55.56
2022-07-28T09:07:00.391Z,55.56
2022-07-28T09:08:00.800Z,54.16
2022-07-28T09:09:00.336Z,54.16
2022-07-28T09:10:02.714Z,54.16
2022-07-28T09:11:00.398Z,54.16
2022-07-28T09:12:02.058Z,54.16
2022-07-28T09:13:00.356Z,53.46
2022-07-28T09:14:00.279Z,53.46
2022-07-28T09:15:01.222Z,53.46
2022-07-28T09:16:00.473Z,53.46
2022-07-28T09:17:00.763Z,53.46
2022-07-28T09:18:01.133Z,52.96
2022-07-28T09:19:00.278Z,52.96
2022-07-28T09:20:00.589Z,52.96
2022-07-28T09:21:00.280Z,52.96
2022-07-28T09:22:00.290Z,52.96
2022-07-28T09:23:01.586Z,51.41
2022-07-28T09:24:00.359Z,51.41
2022-07-28T09:25:00.548Z,51.41
2022-07-28T09:26:11.262Z,51.41
2022-07-28T09:27:01.708Z,51.41
2022-07-28T09:28:07.752Z,50.35
2022-07-28T09:29:00.282Z,50.35
2022-07-28T09:30:00.337Z,50.35
2022-07-28T09:31:04.940Z,50.35
2022-07-28T09:32:00.646Z,50.35
2022-07-28T09:33:10.216Z,51.42
2022-07-28T09:34:01.252Z,51.42
2022-07-28T09:35:00.387Z,51.42
2022-07-28T09:36:00.328Z,51.42
2022-07-28T09:37:00.563Z,51.42
2022-07-28T09:38:00.335Z,51.17
2022-07-28T09:39:00.392Z,51.17
2022-07-28T09:40:10.620Z,51.17
2022-07-28T09:41:01.532Z,51.17
2022-07-28T09:42:00.749Z,51.17
2022-07-28T09:43:00.368Z,50.02
2022-07-28T09:44:00.323Z,50.02
2022-07-28T09:45:21.228Z,50.02
2022-07-28T09:46:02.283Z,50.02
2022-07-28T09:47:10.406Z,50.02
2022-07-28T09:48:07.288Z,49.78
2022-07-28T09:49:00.960Z,49.78
2022-07-28T09:50:01.060Z,49.78
2022-07-28T09:51:10.194Z,49.78
2022-07-28T09:52:01.634Z,49.78
2022-07-28T09:53:01.849Z,49.42
2022-07-28T09:54:07.805Z,49.42
2022-07-28T09:55:01.489Z,49.42
2022-07-28T09:56:01.577Z,49.42
2022-07-28T09:57:00.469Z,49.42
2022-07-28T09:58:08.059Z,49.09
2022-07-28T09:59:00.513Z,49.09
2022-07-28T10:00:01.088Z,49.09
2022-07-28T10:01:04.540Z,49.09
2022-07-28T10:02:01.822Z,49.09
2022-07-28T10:03:00.561Z,48.67
2022-07-28T10:04:02.691Z,48.67
2022-07-28T10:05:00.386Z,48.67
2022-07-28T10:06:00.943Z,48.67
2022-07-28T10:07:01.062Z,48.67
2022-07-28T10:08:00.312Z,47.86
2022-07-28T10:09:01.274Z,47.86
2022-07-28T10:10:01.781Z,47.86
2022-07-28T10:11:00.334Z,47.86
2022-07-28T10:12:10.230Z,47.86
2022-07-28T10:13:03.941Z,48.12
2022-07-28T10:14:02.736Z,48.12
2022-07-28T10:15:10.206Z,48.12
2022-07-28T10:16:04.211Z,48.12
2022-07-28T10:17:05.656Z,48.12
2022-07-28T10:18:00.710Z,48.74
2022-07-28T10:19:01.715Z,48.74
2022-07-28T10:20:03.118Z,48.74
2022-07-28T10:21:01.697Z,48.74
2022-07-28T10:22:01.573Z,48.74
2022-07-28T10:23:05.243Z,48.48
2022-07-28T10:24:03.599Z,48.48
2022-07-28T10:25:01.212Z,48.48
2022-07-28T10:26:01.027Z,48.48
2022-07-28T10:27:02.391Z,48.48
2022-07-28T10:28:01.072Z,47.66
2022-07-28T10:29:02.876Z,47.66
2022-07-28T10:30:01.241Z,47.66
2022-07-28T10:31:00.774Z,47.66
2022-07-28T10:32:04.172Z,47.66
2022-07-28T10:33:02.030Z,47.21
2022-07-28T10:34:01.111Z,47.21
2022-07-28T10:35:09.780Z,47.21
2022-07-28T10:36:01.250Z,47.21
2022-07-28T10:37:02.073Z,47.21
2022-07-28T10:38:10.243Z,47.16
2022-07-28T10:39:02.805Z,47.16
2022-07-28T10:40:09.783Z,47.16
2022-07-28T10:41:01.097Z,47.16
2022-07-28T10:42:00.839Z,47.16
2022-07-28T10:43:00.551Z,46.73
2022-07-28T10:44:01.572Z,46.73
2022-07-28T10:45:01.054Z,46.73
2022-07-28T10:46:07.545Z,46.73
2022-07-28T10:47:00.435Z,46.73
2022-07-28T10:48:01.239Z,46.20
2022-07-28T10:49:00.728Z,46.20
2022-07-28T10:50:00.894Z,46.20
2022-07-28T10:51:00.621Z,46.20
2022-07-28T10:52:02.707Z,46.20
2022-07-28T10:53:01.422Z,46.33
2022-07-28T10:54:05.199Z,46.33
2022-07-28T10:55:10.209Z,46.33
2022-07-28T10:56:06.209Z,46.33
2022-07-28T10:57:04.731Z,46.33
2022-07-28T10:58:10.916Z,46.26
2022-07-28T10:59:10.182Z,46.26
2022-07-28T11:00:12.826Z,46.26
2022-07-28T11:01:05.972Z,46.26
2022-07-28T11:02:00.382Z,46.26
2022-07-28T11:03:00.642Z,45.45
2022-07-28T11:04:00.347Z,45.45
2022-07-28T11:05:00.274Z,45.45
2022-07-28T11:06:10.167Z,45.45
2022-07-28T11:07:10.154Z,45.45
2022-07-28T11:08:01.624Z,44.87
2022-07-28T11:09:10.168Z,44.87
2022-07-28T11:10:10.198Z,44.87
2022-07-28T11:11:08.166Z,44.87
2022-07-28T11:12:00.293Z,44.87
2022-07-28T11:13:00.289Z,44.37
2022-07-28T11:14:10.195Z,44.37
2022-07-28T11:15:18.340Z,44.37
2022-07-28T11:16:10.165Z,44.37
2022-07-28T11:17:00.363Z,44.37
2022-07-28T11:18:02.924Z,43.90
2022-07-28T11:19:01.268Z,43.90
2022-07-28T11:20:25.903Z,43.90
2022-07-28T11:21:03.690Z,43.90
2022-07-28T11:22:10.171Z,43.90
2022-07-28T11:23:10.181Z,44.19
2022-07-28T11:24:00.345Z,44.19
2022-07-28T11:25:00.256Z,44.19
2022-07-28T11:26:10.197Z,44.19
2022-07-28T11:27:04.010Z,44.19
2022-07-28T11:28:00.325Z,43.00
2022-07-28T11:29:00.385Z,43.00
2022-07-28T11:30:00.317Z,43.00
2022-07-28T11:31:00.311Z,43.00
2022-07-28T11:32:00.980Z,43.00
2022-07-28T11:33:01.029Z,42.42
2022-07-28T11:34:00.271Z,42.42
2022-07-28T11:35:04.537Z,42.42
2022-07-28T11:36:00.343Z,42.42
2022-07-28T11:37:04.540Z,42.42
2022-07-28T11:38:00.258Z,42.84
2022-07-28T11:39:10.168Z,42.84
2022-07-28T11:40:10.187Z,42.84
2022-07-28T11:41:00.304Z,42.84
2022-07-28T11:42:10.184Z,42.84
2022-07-28T11:43:10.181Z,43.08
2022-07-28T11:44:10.172Z,43.08
2022-07-28T11:45:10.174Z,43.08
2022-07-28T11:46:00.401Z,43.08
2022-07-28T11:47:10.175Z,43.08
2022-07-28T11:48:10.196Z,42.72
2022-07-28T11:49:14.734Z,42.72
2022-07-28T11:50:10.179Z,42.72
2022-07-28T11:51:03.542Z,42.72
2022-07-28T11:52:10.165Z,42.72
2022-07-28T11:53:00.405Z,42.68
2022-07-28T11:54:00.455Z,42.68
2022-07-28T11:55:00.591Z,42.68
2022-07-28T11:56:02.866Z,42.68
2022-07-28T11:57:00.632Z,42.68
2022-07-28T11:58:00.277Z,42.80
2022-07-28T11:59:00.245Z,42.80
2022-07-28T12:00:00.913Z,42.80
2022-07-28T12:01:13.716Z,42.80
2022-07-28T12:02:00.310Z,42.80
2022-07-28T12:03:00.278Z,41.91
2022-07-28T12:04:07.141Z,41.91
2022-07-28T12:05:02.700Z,41.91
2022-07-28T12:06:00.281Z,41.91
2022-07-28T12:07:01.217Z,41.91
2022-07-28T12:08:00.280Z,41.24
2022-07-28T12:09:01.875Z,41.24
2022-07-28T12:10:00.841Z,41.24
2022-07-28T12:11:00.283Z,41.24
2022-07-28T12:12:00.306Z,41.24
2022-07-28T12:13:02.956Z,41.64
2022-07-28T12:14:01.215Z,41.64
2022-07-28T12:15:06.366Z,41.64
2022-07-28T12:16:00.334Z,41.64
2022-07-28T12:17:00.420Z,41.64
2022-07-28T12:18:00.864Z,41.07
2022-07-28T12:19:00.756Z,41.07
2022-07-28T12:20:03.082Z,41.07
2022-07-28T12:21:04.869Z,41.07
2022-07-28T12:22:00.402Z,41.07
2022-07-28T12:23:02.933Z,41.18
2022-07-28T12:24:00.334Z,41.18
2022-07-28T12:25:00.275Z,41.18
2022-07-28T12:26:00.289Z,41.18
2022-07-28T12:27:00.359Z,41.18
2022-07-28T12:28:10.299Z,41.20
2022-07-28T12:29:01.213Z,41.20
2022-07-28T12:30:01.425Z,41.20
2022-07-28T12:31:10.193Z,41.20
2022-07-28T12:32:01.625Z,41.20
2022-07-28T12:33:10.165Z,41.01
2022-07-28T12:34:01.311Z,41.01
2022-07-28T12:35:00.867Z,41.01
2022-07-28T12:36:00.641Z,41.01
2022-07-28T12:37:01.183Z,41.01
2022-07-28T12:38:00.358Z,41.03
2022-07-28T12:39:00.634Z,41.03
2022-07-28T12:40:00.397Z,41.03
2022-07-28T12:41:00.294Z,41.03
2022-07-28T12:42:03.217Z,41.03
2022-07-28T12:43:00.279Z,40.72
2022-07-28T12:44:01.258Z,40.72
2022-07-28T12:45:00.763Z,40.72
2022-07-28T12:46:00.355Z,40.72
2022-07-28T12:47:00.778Z,40.72
2022-07-28T12:48:07.675Z,41.19
2022-07-28T12:49:00.510Z,41.19
2022-07-28T12:50:10.239Z,41.19
2022-07-28T12:51:00.278Z,41.19
2022-07-28T12:52:10.176Z,41.19